sensor_id;sensor_type;location;lat;lon;timestamp;P1;durP1;ratioP1;P2;durP2;ratioP2
33706;SDS011;20583;50.960;5.332;2022-07-06T00:01:29;6.72;;;2.63;;
33706;SDS011;20583;50.960;5.332;2022-07-06T00:03:55;4.07;;;2.15;;
33706;SDS011;20583;50.960;5.332;2022-07-06T00:06:20;3.55;;;2.17;;
33706;SDS011;20583;50.960;5.332;2022-07-06T00:08:47;4.85;;;2.33;;
33706;SDS011;20583;50.960;5.332;2022-07-06T00:11:13;8.43;;;3.10;;
33706;SDS011;20583;50.960;5.332;2022-07-06T00:13:38;6.20;;;2.65;;
33706;SDS011;20583;50.960;5.332;2022-07-06T00:16:04;4.40;;;2.15;;
33706;SDS011;20583;50.960;5.332;2022-07-06T00:18:30;4.20;;;2.30;;
33706;SDS011;20583;50.960;5.332;2022-07-06T00:20:56;6.20;;;2.25;;
33706;SDS011;20583;50.960;5.332;2022-07-06T00:23:22;6.13;;;2.50;;
33706;SDS011;20583;50.960;5.332;2022-07-06T00:25:48;5.60;;;2.65;;
33706;SDS011;20583;50.960;5.332;2022-07-06T00:28:14;4.00;;;2.33;;
33706;SDS011;20583;50.960;5.332;2022-07-06T00:30:40;5.10;;;2.20;;
33706;SDS011;20583;50.960;5.332;2022-07-06T00:33:06;3.08;;;1.80;;
33706;SDS011;20583;50.960;5.332;2022-07-06T00:35:32;5.15;;;2.20;;
33706;SDS011;20583;50.960;5.332;2022-07-06T00:37:58;3.17;;;1.90;;
33706;SDS011;20583;50.960;5.332;2022-07-06T00:40:24;4.82;;;2.28;;
33706;SDS011;20583;50.960;5.332;2022-07-06T00:42:49;4.68;;;2.15;;
33706;SDS011;20583;50.960;5.332;2022-07-06T00:45:16;5.72;;;2.42;;
33706;SDS011;20583;50.960;5.332;2022-07-06T00:47:43;3.15;;;2.05;;
33706;SDS011;20583;50.960;5.332;2022-07-06T00:50:10;6.20;;;2.38;;
33706;SDS011;20583;50.960;5.332;2022-07-06T00:52:40;4.57;;;1.90;;
33706;SDS011;20583;50.960;5.332;2022-07-06T00:55:08;3.60;;;2.08;;
33706;SDS011;20583;50.960;5.332;2022-07-06T00:57:34;3.85;;;2.00;;
33706;SDS011;20583;50.960;5.332;2022-07-06T01:00:01;3.92;;;2.25;;
33706;SDS011;20583;50.960;5.332;2022-07-06T01:02:30;3.97;;;1.95;;
33706;SDS011;20583;50.960;5.332;2022-07-06T01:04:57;3.53;;;1.75;;
33706;SDS011;20583;50.960;5.332;2022-07-06T01:07:22;3.20;;;1.98;;
33706;SDS011;20583;50.960;5.332;2022-07-06T01:09:48;4.35;;;2.40;;
33706;SDS011;20583;50.960;5.332;2022-07-06T01:12:14;4.93;;;1.90;;
33706;SDS011;20583;50.960;5.332;2022-07-06T01:14:40;3.78;;;2.05;;
33706;SDS011;20583;50.960;5.332;2022-07-06T01:17:07;5.82;;;1.80;;
33706;SDS011;20583;50.960;5.332;2022-07-06T01:19:33;3.20;;;1.77;;
33706;SDS011;20583;50.960;5.332;2022-07-06T01:21:58;4.90;;;2.20;;
33706;SDS011;20583;50.960;5.332;2022-07-06T01:24:24;2.72;;;1.30;;
33706;SDS011;20583;50.960;5.332;2022-07-06T01:26:50;2.05;;;1.50;;
33706;SDS011;20583;50.960;5.332;2022-07-06T01:29:17;3.10;;;1.75;;
33706;SDS011;20583;50.960;5.332;2022-07-06T01:31:47;3.58;;;1.90;;
33706;SDS011;20583;50.960;5.332;2022-07-06T01:34:15;2.10;;;1.50;;
33706;SDS011;20583;50.960;5.332;2022-07-06T01:36:42;2.75;;;1.60;;
33706;SDS011;20583;50.960;5.332;2022-07-06T01:39:08;2.92;;;1.80;;
33706;SDS011;20583;50.960;5.332;2022-07-06T01:41:35;2.35;;;1.52;;
33706;SDS011;20583;50.960;5.332;2022-07-06T01:44:00;2.78;;;1.70;;
33706;SDS011;20583;50.960;5.332;2022-07-06T01:46:26;2.63;;;1.50;;
33706;SDS011;20583;50.960;5.332;2022-07-06T01:48:52;3.25;;;1.60;;
33706;SDS011;20583;50.960;5.332;2022-07-06T01:51:18;3.25;;;1.90;;
33706;SDS011;20583;50.960;5.332;2022-07-06T01:53:44;4.05;;;1.75;;
33706;SDS011;20583;50.960;5.332;2022-07-06T01:56:10;3.92;;;1.80;;
33706;SDS011;20583;50.960;5.332;2022-07-06T01:58:36;3.30;;;1.85;;
33706;SDS011;20583;50.960;5.332;2022-07-06T02:01:09;2.88;;;1.70;;
33706;SDS011;20583;50.960;5.332;2022-07-06T02:03:36;4.78;;;2.20;;
33706;SDS011;20583;50.960;5.332;2022-07-06T02:06:02;2.95;;;1.50;;
33706;SDS011;20583;50.960;5.332;2022-07-06T02:08:28;1.90;;;1.35;;
33706;SDS011;20583;50.960;5.332;2022-07-06T02:10:54;4.03;;;1.55;;
33706;SDS011;20583;50.960;5.332;2022-07-06T02:13:20;2.83;;;1.38;;
33706;SDS011;20583;50.960;5.332;2022-07-06T02:15:46;2.67;;;1.65;;
33706;SDS011;20583;50.960;5.332;2022-07-06T02:18:11;3.88;;;1.98;;
33706;SDS011;20583;50.960;5.332;2022-07-06T02:20:37;2.13;;;1.65;;
33706;SDS011;20583;50.960;5.332;2022-07-06T02:23:03;2.38;;;1.60;;
33706;SDS011;20583;50.960;5.332;2022-07-06T02:25:28;3.88;;;1.60;;
33706;SDS011;20583;50.960;5.332;2022-07-06T02:27:54;3.85;;;1.88;;
33706;SDS011;20583;50.960;5.332;2022-07-06T02:30:20;2.55;;;1.45;;
33706;SDS011;20583;50.960;5.332;2022-07-06T02:32:46;2.63;;;1.40;;
33706;SDS011;20583;50.960;5.332;2022-07-06T02:35:11;2.83;;;1.60;;
33706;SDS011;20583;50.960;5.332;2022-07-06T02:37:38;2.58;;;1.27;;
33706;SDS011;20583;50.960;5.332;2022-07-06T02:40:04;2.85;;;1.42;;
33706;SDS011;20583;50.960;5.332;2022-07-06T02:42:30;2.03;;;1.40;;
33706;SDS011;20583;50.960;5.332;2022-07-06T02:44:56;4.28;;;1.27;;
33706;SDS011;20583;50.960;5.332;2022-07-06T02:47:22;2.47;;;1.30;;
33706;SDS011;20583;50.960;5.332;2022-07-06T02:49:48;3.00;;;1.30;;
33706;SDS011;20583;50.960;5.332;2022-07-06T02:52:14;3.20;;;1.50;;
33706;SDS011;20583;50.960;5.332;2022-07-06T02:54:39;2.97;;;1.42;;
33706;SDS011;20583;50.960;5.332;2022-07-06T02:57:05;4.72;;;1.48;;
33706;SDS011;20583;50.960;5.332;2022-07-06T02:59:31;1.67;;;1.13;;
33706;SDS011;20583;50.960;5.332;2022-07-06T03:01:56;3.28;;;1.52;;
33706;SDS011;20583;50.960;5.332;2022-07-06T03:04:22;2.45;;;1.40;;
33706;SDS011;20583;50.960;5.332;2022-07-06T03:06:48;2.15;;;1.35;;
33706;SDS011;20583;50.960;5.332;2022-07-06T03:09:13;2.95;;;1.45;;
33706;SDS011;20583;50.960;5.332;2022-07-06T03:11:39;3.70;;;1.50;;
33706;SDS011;20583;50.960;5.332;2022-07-06T03:14:05;1.80;;;1.20;;
33706;SDS011;20583;50.960;5.332;2022-07-06T03:16:31;4.25;;;1.45;;
33706;SDS011;20583;50.960;5.332;2022-07-06T03:18:57;1.90;;;1.20;;
33706;SDS011;20583;50.960;5.332;2022-07-06T03:21:25;2.97;;;1.33;;
33706;SDS011;20583;50.960;5.332;2022-07-06T03:23:51;2.78;;;1.20;;
33706;SDS011;20583;50.960;5.332;2022-07-06T03:26:17;2.17;;;1.23;;
33706;SDS011;20583;50.960;5.332;2022-07-06T03:28:43;2.58;;;1.23;;
33706;SDS011;20583;50.960;5.332;2022-07-06T03:31:09;1.63;;;1.10;;
33706;SDS011;20583;50.960;5.332;2022-07-06T03:33:34;3.08;;;1.00;;
33706;SDS011;20583;50.960;5.332;2022-07-06T03:36:00;2.22;;;1.35;;
33706;SDS011;20583;50.960;5.332;2022-07-06T03:38:26;4.15;;;1.20;;
33706;SDS011;20583;50.960;5.332;2022-07-06T03:40:51;1.85;;;1.20;;
33706;SDS011;20583;50.960;5.332;2022-07-06T03:43:17;1.90;;;1.13;;
33706;SDS011;20583;50.960;5.332;2022-07-06T03:45:43;2.42;;;1.25;;
33706;SDS011;20583;50.960;5.332;2022-07-06T03:48:08;1.52;;;1.00;;
33706;SDS011;20583;50.960;5.332;2022-07-06T03:50:34;2.58;;;1.27;;
33706;SDS011;20583;50.960;5.332;2022-07-06T03:53:00;2.17;;;0.98;;
33706;SDS011;20583;50.960;5.332;2022-07-06T03:55:26;1.90;;;1.20;;
33706;SDS011;20583;50.960;5.332;2022-07-06T03:57:52;1.67;;;0.98;;
33706;SDS011;20583;50.960;5.332;2022-07-06T04:00:18;1.80;;;1.30;;
33706;SDS011;20583;50.960;5.332;2022-07-06T04:02:43;3.03;;;1.30;;
33706;SDS011;20583;50.960;5.332;2022-07-06T04:05:09;2.53;;;1.15;;
33706;SDS011;20583;50.960;5.332;2022-07-06T04:07:35;1.58;;;1.15;;
33706;SDS011;20583;50.960;5.332;2022-07-06T04:10:00;1.55;;;0.93;;
33706;SDS011;20583;50.960;5.332;2022-07-06T04:12:26;1.77;;;1.17;;
33706;SDS011;20583;50.960;5.332;2022-07-06T04:14:51;1.67;;;1.10;;
33706;SDS011;20583;50.960;5.332;2022-07-06T04:17:17;2.53;;;1.08;;
33706;SDS011;20583;50.960;5.332;2022-07-06T04:20:02;2.58;;;1.20;;
33706;SDS011;20583;50.960;5.332;2022-07-06T04:22:28;2.15;;;1.10;;
33706;SDS011;20583;50.960;5.332;2022-07-06T04:24:53;1.60;;;1.00;;
33706;SDS011;20583;50.960;5.332;2022-07-06T04:27:19;2.22;;;1.45;;
33706;SDS011;20583;50.960;5.332;2022-07-06T04:29:45;3.05;;;1.20;;
33706;SDS011;20583;50.960;5.332;2022-07-06T04:32:10;1.25;;;0.82;;
33706;SDS011;20583;50.960;5.332;2022-07-06T04:34:36;1.75;;;1.17;;
33706;SDS011;20583;50.960;5.332;2022-07-06T04:37:02;2.53;;;1.10;;
33706;SDS011;20583;50.960;5.332;2022-07-06T04:39:28;1.00;;;0.82;;
33706;SDS011;20583;50.960;5.332;2022-07-06T04:41:55;1.65;;;0.90;;
33706;SDS011;20583;50.960;5.332;2022-07-06T04:44:21;1.92;;;0.90;;
33706;SDS011;20583;50.960;5.332;2022-07-06T04:46:47;1.63;;;0.82;;
33706;SDS011;20583;50.960;5.332;2022-07-06T04:49:12;1.55;;;1.05;;
33706;SDS011;20583;50.960;5.332;2022-07-06T04:51:38;1.38;;;0.90;;
33706;SDS011;20583;50.960;5.332;2022-07-06T04:54:04;1.85;;;1.08;;
33706;SDS011;20583;50.960;5.332;2022-07-06T04:56:30;2.15;;;1.02;;
33706;SDS011;20583;50.960;5.332;2022-07-06T04:58:56;2.00;;;1.20;;
33706;SDS011;20583;50.960;5.332;2022-07-06T05:01:22;1.67;;;0.93;;
33706;SDS011;20583;50.960;5.332;2022-07-06T05:03:47;1.02;;;0.70;;
33706;SDS011;20583;50.960;5.332;2022-07-06T05:06:13;2.17;;;1.00;;
33706;SDS011;20583;50.960;5.332;2022-07-06T05:08:39;1.35;;;1.00;;
33706;SDS011;20583;50.960;5.332;2022-07-06T05:11:05;2.97;;;0.80;;
33706;SDS011;20583;50.960;5.332;2022-07-06T05:13:31;2.08;;;1.33;;
33706;SDS011;20583;50.960;5.332;2022-07-06T05:15:56;1.90;;;1.00;;
33706;SDS011;20583;50.960;5.332;2022-07-06T05:18:22;2.00;;;0.85;;
33706;SDS011;20583;50.960;5.332;2022-07-06T05:20:47;1.10;;;0.80;;
33706;SDS011;20583;50.960;5.332;2022-07-06T05:23:13;2.33;;;1.08;;
33706;SDS011;20583;50.960;5.332;2022-07-06T05:25:39;1.30;;;0.70;;
33706;SDS011;20583;50.960;5.332;2022-07-06T05:28:05;2.67;;;0.95;;
33706;SDS011;20583;50.960;5.332;2022-07-06T05:30:30;1.35;;;1.00;;
33706;SDS011;20583;50.960;5.332;2022-07-06T05:32:56;2.78;;;1.00;;
33706;SDS011;20583;50.960;5.332;2022-07-06T05:35:22;1.65;;;0.90;;
33706;SDS011;20583;50.960;5.332;2022-07-06T05:37:47;2.33;;;1.10;;
33706;SDS011;20583;50.960;5.332;2022-07-06T05:40:13;1.73;;;0.80;;
33706;SDS011;20583;50.960;5.332;2022-07-06T05:42:38;1.75;;;1.00;;
33706;SDS011;20583;50.960;5.332;2022-07-06T05:45:05;1.70;;;0.82;;
33706;SDS011;20583;50.960;5.332;2022-07-06T05:47:31;1.83;;;0.90;;
33706;SDS011;20583;50.960;5.332;2022-07-06T05:50:15;1.85;;;1.10;;
33706;SDS011;20583;50.960;5.332;2022-07-06T05:52:43;2.60;;;1.00;;
33706;SDS011;20583;50.960;5.332;2022-07-06T05:55:19;0.88;;;0.70;;
33706;SDS011;20583;50.960;5.332;2022-07-06T05:57:45;1.35;;;0.90;;
33706;SDS011;20583;50.960;5.332;2022-07-06T06:00:11;2.35;;;1.17;;
33706;SDS011;20583;50.960;5.332;2022-07-06T06:02:38;4.65;;;1.17;;
33706;SDS011;20583;50.960;5.332;2022-07-06T06:05:05;4.32;;;1.42;;
33706;SDS011;20583;50.960;5.332;2022-07-06T06:07:35;4.20;;;1.30;;
33706;SDS011;20583;50.960;5.332;2022-07-06T06:10:02;5.40;;;1.40;;
33706;SDS011;20583;50.960;5.332;2022-07-06T06:12:29;3.33;;;1.27;;
33706;SDS011;20583;50.960;5.332;2022-07-06T06:14:55;4.25;;;1.05;;
33706;SDS011;20583;50.960;5.332;2022-07-06T06:17:20;5.40;;;1.20;;
33706;SDS011;20583;50.960;5.332;2022-07-06T06:19:46;2.92;;;1.40;;
33706;SDS011;20583;50.960;5.332;2022-07-06T06:22:12;2.28;;;1.08;;
33706;SDS011;20583;50.960;5.332;2022-07-06T06:24:38;6.57;;;1.48;;
33706;SDS011;20583;50.960;5.332;2022-07-06T06:27:04;2.78;;;1.38;;
33706;SDS011;20583;50.960;5.332;2022-07-06T06:29:29;4.85;;;1.60;;
33706;SDS011;20583;50.960;5.332;2022-07-06T06:31:55;6.63;;;1.73;;
33706;SDS011;20583;50.960;5.332;2022-07-06T06:34:21;4.43;;;1.58;;
33706;SDS011;20583;50.960;5.332;2022-07-06T06:36:47;1.90;;;1.17;;
33706;SDS011;20583;50.960;5.332;2022-07-06T06:39:12;3.13;;;1.58;;
33706;SDS011;20583;50.960;5.332;2022-07-06T06:41:38;4.65;;;1.13;;
33706;SDS011;20583;50.960;5.332;2022-07-06T06:44:04;5.68;;;1.55;;
33706;SDS011;20583;50.960;5.332;2022-07-06T06:46:30;5.30;;;1.40;;
33706;SDS011;20583;50.960;5.332;2022-07-06T06:48:55;3.97;;;1.38;;
33706;SDS011;20583;50.960;5.332;2022-07-06T06:51:21;2.05;;;1.00;;
33706;SDS011;20583;50.960;5.332;2022-07-06T06:53:47;4.25;;;1.40;;
33706;SDS011;20583;50.960;5.332;2022-07-06T06:56:13;3.90;;;1.20;;
33706;SDS011;20583;50.960;5.332;2022-07-06T06:58:38;4.20;;;1.42;;
33706;SDS011;20583;50.960;5.332;2022-07-06T07:01:04;2.97;;;1.20;;
33706;SDS011;20583;50.960;5.332;2022-07-06T07:03:30;6.38;;;1.10;;
33706;SDS011;20583;50.960;5.332;2022-07-06T07:05:56;5.57;;;1.35;;
33706;SDS011;20583;50.960;5.332;2022-07-06T07:08:23;5.43;;;1.67;;
33706;SDS011;20583;50.960;5.332;2022-07-06T07:10:49;6.57;;;1.80;;
33706;SDS011;20583;50.960;5.332;2022-07-06T07:13:14;9.10;;;1.73;;
33706;SDS011;20583;50.960;5.332;2022-07-06T07:15:40;4.82;;;1.80;;
33706;SDS011;20583;50.960;5.332;2022-07-06T07:18:06;6.30;;;1.80;;
33706;SDS011;20583;50.960;5.332;2022-07-06T07:20:31;7.75;;;1.95;;
33706;SDS011;20583;50.960;5.332;2022-07-06T07:22:58;12.27;;;1.90;;
33706;SDS011;20583;50.960;5.332;2022-07-06T07:25:25;14.55;;;2.00;;
33706;SDS011;20583;50.960;5.332;2022-07-06T07:27:51;8.50;;;2.05;;
33706;SDS011;20583;50.960;5.332;2022-07-06T07:30:17;7.65;;;1.85;;
33706;SDS011;20583;50.960;5.332;2022-07-06T07:32:42;9.00;;;2.25;;
33706;SDS011;20583;50.960;5.332;2022-07-06T07:35:09;9.05;;;2.15;;
33706;SDS011;20583;50.960;5.332;2022-07-06T07:37:34;9.90;;;2.08;;
33706;SDS011;20583;50.960;5.332;2022-07-06T07:40:00;6.07;;;1.80;;
33706;SDS011;20583;50.960;5.332;2022-07-06T07:42:26;9.10;;;2.05;;
33706;SDS011;20583;50.960;5.332;2022-07-06T07:44:52;15.70;;;2.05;;
33706;SDS011;20583;50.960;5.332;2022-07-06T07:47:17;7.95;;;1.77;;
33706;SDS011;20583;50.960;5.332;2022-07-06T07:49:43;6.28;;;1.80;;
33706;SDS011;20583;50.960;5.332;2022-07-06T07:52:09;12.93;;;1.98;;
33706;SDS011;20583;50.960;5.332;2022-07-06T07:54:35;4.53;;;1.60;;
33706;SDS011;20583;50.960;5.332;2022-07-06T07:57:01;5.18;;;1.67;;
33706;SDS011;20583;50.960;5.332;2022-07-06T07:59:27;5.78;;;1.27;;
33706;SDS011;20583;50.960;5.332;2022-07-06T08:01:53;8.50;;;2.00;;
33706;SDS011;20583;50.960;5.332;2022-07-06T08:04:18;13.45;;;1.55;;
33706;SDS011;20583;50.960;5.332;2022-07-06T08:06:44;6.38;;;1.50;;
33706;SDS011;20583;50.960;5.332;2022-07-06T08:09:09;4.10;;;1.52;;
33706;SDS011;20583;50.960;5.332;2022-07-06T08:11:35;8.05;;;1.80;;
33706;SDS011;20583;50.960;5.332;2022-07-06T08:14:02;7.07;;;1.70;;
33706;SDS011;20583;50.960;5.332;2022-07-06T08:16:28;4.03;;;1.25;;
33706;SDS011;20583;50.960;5.332;2022-07-06T08:18:54;6.80;;;1.27;;
33706;SDS011;20583;50.960;5.332;2022-07-06T08:21:20;4.07;;;1.00;;
33706;SDS011;20583;50.960;5.332;2022-07-06T08:23:45;4.53;;;1.10;;
33706;SDS011;20583;50.960;5.332;2022-07-06T08:26:11;4.32;;;0.90;;
33706;SDS011;20583;50.960;5.332;2022-07-06T08:28:37;2.90;;;0.98;;
33706;SDS011;20583;50.960;5.332;2022-07-06T08:31:02;5.25;;;1.10;;
33706;SDS011;20583;50.960;5.332;2022-07-06T08:33:28;6.15;;;1.02;;
33706;SDS011;20583;50.960;5.332;2022-07-06T08:35:54;5.28;;;1.50;;
33706;SDS011;20583;50.960;5.332;2022-07-06T08:38:19;5.05;;;1.10;;
33706;SDS011;20583;50.960;5.332;2022-07-06T08:40:49;3.88;;;0.98;;
33706;SDS011;20583;50.960;5.332;2022-07-06T08:43:16;4.38;;;1.08;;
33706;SDS011;20583;50.960;5.332;2022-07-06T08:45:42;4.30;;;1.08;;
33706;SDS011;20583;50.960;5.332;2022-07-06T08:48:10;2.58;;;0.80;;
33706;SDS011;20583;50.960;5.332;2022-07-06T08:50:37;3.30;;;0.93;;
33706;SDS011;20583;50.960;5.332;2022-07-06T08:53:04;2.90;;;0.90;;
33706;SDS011;20583;50.960;5.332;2022-07-06T08:55:30;3.13;;;0.88;;
33706;SDS011;20583;50.960;5.332;2022-07-06T08:57:56;3.58;;;0.70;;
33706;SDS011;20583;50.960;5.332;2022-07-06T09:00:23;4.78;;;1.00;;
33706;SDS011;20583;50.960;5.332;2022-07-06T09:02:50;3.28;;;0.77;;
33706;SDS011;20583;50.960;5.332;2022-07-06T09:05:18;6.30;;;1.35;;
33706;SDS011;20583;50.960;5.332;2022-07-06T09:07:50;2.58;;;0.68;;
33706;SDS011;20583;50.960;5.332;2022-07-06T09:10:18;2.97;;;0.73;;
33706;SDS011;20583;50.960;5.332;2022-07-06T09:12:45;2.58;;;0.88;;
33706;SDS011;20583;50.960;5.332;2022-07-06T09:15:11;2.67;;;0.90;;
33706;SDS011;20583;50.960;5.332;2022-07-06T09:17:37;3.97;;;0.88;;
33706;SDS011;20583;50.960;5.332;2022-07-06T09:20:08;3.00;;;0.68;;
33706;SDS011;20583;50.960;5.332;2022-07-06T09:22:35;5.57;;;0.80;;
33706;SDS011;20583;50.960;5.332;2022-07-06T09:25:08;3.35;;;1.10;;
33706;SDS011;20583;50.960;5.332;2022-07-06T09:27:45;5.32;;;0.80;;
33706;SDS011;20583;50.960;5.332;2022-07-06T09:30:13;3.00;;;1.00;;
33706;SDS011;20583;50.960;5.332;2022-07-06T09:32:40;1.95;;;0.80;;
33706;SDS011;20583;50.960;5.332;2022-07-06T09:35:07;5.72;;;1.20;;
33706;SDS011;20583;50.960;5.332;2022-07-06T09:37:34;4.78;;;0.88;;
33706;SDS011;20583;50.960;5.332;2022-07-06T09:39:59;3.15;;;0.88;;
33706;SDS011;20583;50.960;5.332;2022-07-06T09:42:25;4.75;;;1.00;;
33706;SDS011;20583;50.960;5.332;2022-07-06T09:44:52;4.10;;;0.98;;
33706;SDS011;20583;50.960;5.332;2022-07-06T09:47:18;6.57;;;1.23;;
33706;SDS011;20583;50.960;5.332;2022-07-06T09:49:45;4.28;;;0.95;;
33706;SDS011;20583;50.960;5.332;2022-07-06T09:52:13;5.35;;;1.38;;
33706;SDS011;20583;50.960;5.332;2022-07-06T09:54:39;4.10;;;0.90;;
33706;SDS011;20583;50.960;5.332;2022-07-06T09:57:05;4.20;;;1.27;;
33706;SDS011;20583;50.960;5.332;2022-07-06T09:59:33;3.13;;;1.08;;
33706;SDS011;20583;50.960;5.332;2022-07-06T10:02:00;5.70;;;1.10;;
33706;SDS011;20583;50.960;5.332;2022-07-06T10:04:28;3.30;;;1.00;;
33706;SDS011;20583;50.960;5.332;2022-07-06T10:06:55;3.22;;;1.15;;
33706;SDS011;20583;50.960;5.332;2022-07-06T10:09:23;4.55;;;1.25;;
33706;SDS011;20583;50.960;5.332;2022-07-06T10:11:57;3.90;;;1.10;;
33706;SDS011;20583;50.960;5.332;2022-07-06T10:14:26;4.78;;;1.35;;
33706;SDS011;20583;50.960;5.332;2022-07-06T10:16:54;3.10;;;0.88;;
33706;SDS011;20583;50.960;5.332;2022-07-06T10:19:25;4.72;;;0.80;;
33706;SDS011;20583;50.960;5.332;2022-07-06T10:21:52;3.03;;;1.00;;
33706;SDS011;20583;50.960;5.332;2022-07-06T10:24:19;4.72;;;1.13;;
33706;SDS011;20583;50.960;5.332;2022-07-06T10:26:46;4.72;;;1.17;;
33706;SDS011;20583;50.960;5.332;2022-07-06T10:29:13;2.85;;;0.82;;
33706;SDS011;20583;50.960;5.332;2022-07-06T10:31:46;5.43;;;1.17;;
33706;SDS011;20583;50.960;5.332;2022-07-06T10:34:15;3.70;;;1.20;;
33706;SDS011;20583;50.960;5.332;2022-07-06T10:36:44;5.55;;;1.17;;
33706;SDS011;20583;50.960;5.332;2022-07-06T10:39:13;3.88;;;1.30;;
33706;SDS011;20583;50.960;5.332;2022-07-06T10:41:57;3.53;;;0.82;;
33706;SDS011;20583;50.960;5.332;2022-07-06T10:44:23;5.95;;;1.55;;
33706;SDS011;20583;50.960;5.332;2022-07-06T10:46:51;3.47;;;1.17;;
33706;SDS011;20583;50.960;5.332;2022-07-06T10:49:22;3.95;;;1.00;;
33706;SDS011;20583;50.960;5.332;2022-07-06T10:51:49;5.55;;;1.40;;
33706;SDS011;20583;50.960;5.332;2022-07-06T10:54:17;7.40;;;1.38;;
33706;SDS011;20583;50.960;5.332;2022-07-06T10:56:45;7.47;;;1.42;;
33706;SDS011;20583;50.960;5.332;2022-07-06T10:59:14;9.02;;;1.83;;
33706;SDS011;20583;50.960;5.332;2022-07-06T11:02:10;11.18;;;1.85;;
33706;SDS011;20583;50.960;5.332;2022-07-06T11:04:36;5.18;;;1.55;;
33706;SDS011;20583;50.960;5.332;2022-07-06T11:07:07;9.95;;;1.73;;
33706;SDS011;20583;50.960;5.332;2022-07-06T11:09:35;6.40;;;1.30;;
33706;SDS011;20583;50.960;5.332;2022-07-06T11:12:11;3.78;;;1.10;;
33706;SDS011;20583;50.960;5.332;2022-07-06T11:14:40;3.53;;;1.42;;
33706;SDS011;20583;50.960;5.332;2022-07-06T11:17:06;7.60;;;1.20;;
33706;SDS011;20583;50.960;5.332;2022-07-06T11:19:35;4.13;;;1.00;;
33706;SDS011;20583;50.960;5.332;2022-07-06T11:22:08;6.18;;;1.20;;
33706;SDS011;20583;50.960;5.332;2022-07-06T11:24:40;3.30;;;1.10;;
33706;SDS011;20583;50.960;5.332;2022-07-06T11:27:06;4.80;;;1.30;;
33706;SDS011;20583;50.960;5.332;2022-07-06T11:29:32;13.10;;;1.80;;
33706;SDS011;20583;50.960;5.332;2022-07-06T11:32:04;5.90;;;1.40;;
33706;SDS011;20583;50.960;5.332;2022-07-06T11:34:32;7.25;;;1.20;;
33706;SDS011;20583;50.960;5.332;2022-07-06T11:37:01;9.43;;;1.50;;
33706;SDS011;20583;50.960;5.332;2022-07-06T11:39:32;3.65;;;1.13;;
33706;SDS011;20583;50.960;5.332;2022-07-06T11:41:59;8.20;;;1.20;;
33706;SDS011;20583;50.960;5.332;2022-07-06T11:44:26;3.90;;;1.10;;
33706;SDS011;20583;50.960;5.332;2022-07-06T11:46:52;7.78;;;1.25;;
33706;SDS011;20583;50.960;5.332;2022-07-06T11:49:21;8.75;;;1.40;;
33706;SDS011;20583;50.960;5.332;2022-07-06T11:51:47;4.07;;;1.25;;
33706;SDS011;20583;50.960;5.332;2022-07-06T11:54:16;1.65;;;1.05;;
33706;SDS011;20583;50.960;5.332;2022-07-06T11:56:54;5.65;;;1.17;;
33706;SDS011;20583;50.960;5.332;2022-07-06T11:59:30;3.90;;;1.20;;
33706;SDS011;20583;50.960;5.332;2022-07-06T12:01:58;3.78;;;1.48;;
33706;SDS011;20583;50.960;5.332;2022-07-06T12:04:27;5.53;;;1.23;;
33706;SDS011;20583;50.960;5.332;2022-07-06T12:06:54;5.00;;;1.20;;
33706;SDS011;20583;50.960;5.332;2022-07-06T12:09:20;10.52;;;1.20;;
33706;SDS011;20583;50.960;5.332;2022-07-06T12:11:47;7.30;;;1.23;;
33706;SDS011;20583;50.960;5.332;2022-07-06T12:14:16;4.10;;;1.10;;
33706;SDS011;20583;50.960;5.332;2022-07-06T12:16:44;6.40;;;1.17;;
33706;SDS011;20583;50.960;5.332;2022-07-06T12:19:11;8.57;;;1.40;;
33706;SDS011;20583;50.960;5.332;2022-07-06T12:21:47;3.95;;;1.35;;
33706;SDS011;20583;50.960;5.332;2022-07-06T12:24:17;10.15;;;1.45;;
33706;SDS011;20583;50.960;5.332;2022-07-06T12:26:47;3.85;;;1.40;;
33706;SDS011;20583;50.960;5.332;2022-07-06T12:29:14;4.88;;;0.90;;
33706;SDS011;20583;50.960;5.332;2022-07-06T12:31:41;3.80;;;1.27;;
33706;SDS011;20583;50.960;5.332;2022-07-06T12:34:12;3.60;;;1.00;;
33706;SDS011;20583;50.960;5.332;2022-07-06T12:36:46;4.68;;;1.23;;
33706;SDS011;20583;50.960;5.332;2022-07-06T12:39:13;3.00;;;1.10;;
33706;SDS011;20583;50.960;5.332;2022-07-06T12:41:44;5.30;;;1.30;;
33706;SDS011;20583;50.960;5.332;2022-07-06T12:46:42;5.63;;;1.30;;
33706;SDS011;20583;50.960;5.332;2022-07-06T12:51:54;4.65;;;1.10;;
33706;SDS011;20583;50.960;5.332;2022-07-06T12:54:20;5.10;;;1.35;;
33706;SDS011;20583;50.960;5.332;2022-07-06T12:56:59;3.17;;;1.23;;
33706;SDS011;20583;50.960;5.332;2022-07-06T12:59:31;2.70;;;0.90;;
33706;SDS011;20583;50.960;5.332;2022-07-06T13:01:59;3.08;;;1.25;;
33706;SDS011;20583;50.960;5.332;2022-07-06T13:04:25;4.45;;;1.20;;
33706;SDS011;20583;50.960;5.332;2022-07-06T13:06:52;4.35;;;1.17;;
33706;SDS011;20583;50.960;5.332;2022-07-06T13:09:18;3.95;;;1.00;;
33706;SDS011;20583;50.960;5.332;2022-07-06T13:11:45;6.25;;;1.30;;
33706;SDS011;20583;50.960;5.332;2022-07-06T13:14:12;4.95;;;1.02;;
33706;SDS011;20583;50.960;5.332;2022-07-06T13:16:39;3.78;;;1.27;;
33706;SDS011;20583;50.960;5.332;2022-07-06T13:19:05;3.00;;;0.95;;
33706;SDS011;20583;50.960;5.332;2022-07-06T13:21:30;6.15;;;1.48;;
33706;SDS011;20583;50.960;5.332;2022-07-06T13:23:56;5.07;;;1.30;;
33706;SDS011;20583;50.960;5.332;2022-07-06T13:26:22;5.30;;;1.70;;
33706;SDS011;20583;50.960;5.332;2022-07-06T13:28:47;3.67;;;1.30;;
33706;SDS011;20583;50.960;5.332;2022-07-06T13:31:13;6.45;;;1.48;;
33706;SDS011;20583;50.960;5.332;2022-07-06T13:33:39;4.35;;;1.20;;
33706;SDS011;20583;50.960;5.332;2022-07-06T13:36:05;7.18;;;1.38;;
33706;SDS011;20583;50.960;5.332;2022-07-06T13:38:31;2.83;;;1.02;;
33706;SDS011;20583;50.960;5.332;2022-07-06T13:40:56;8.75;;;1.65;;
33706;SDS011;20583;50.960;5.332;2022-07-06T13:43:22;5.80;;;1.45;;
33706;SDS011;20583;50.960;5.332;2022-07-06T13:45:48;4.70;;;1.30;;
33706;SDS011;20583;50.960;5.332;2022-07-06T13:48:14;3.20;;;1.00;;
33706;SDS011;20583;50.960;5.332;2022-07-06T13:50:40;3.85;;;1.13;;
33706;SDS011;20583;50.960;5.332;2022-07-06T13:53:06;4.18;;;1.27;;
33706;SDS011;20583;50.960;5.332;2022-07-06T13:55:32;7.32;;;1.85;;
33706;SDS011;20583;50.960;5.332;2022-07-06T13:57:58;5.35;;;1.25;;
33706;SDS011;20583;50.960;5.332;2022-07-06T14:00:24;5.10;;;1.50;;
33706;SDS011;20583;50.960;5.332;2022-07-06T14:02:50;7.35;;;1.33;;
33706;SDS011;20583;50.960;5.332;2022-07-06T14:05:16;8.68;;;1.55;;
33706;SDS011;20583;50.960;5.332;2022-07-06T14:07:41;6.95;;;1.52;;
33706;SDS011;20583;50.960;5.332;2022-07-06T14:10:07;6.05;;;1.40;;
33706;SDS011;20583;50.960;5.332;2022-07-06T14:12:34;7.55;;;1.85;;
33706;SDS011;20583;50.960;5.332;2022-07-06T14:15:00;7.68;;;1.40;;
33706;SDS011;20583;50.960;5.332;2022-07-06T14:17:26;4.10;;;1.52;;
33706;SDS011;20583;50.960;5.332;2022-07-06T14:19:52;5.75;;;1.50;;
33706;SDS011;20583;50.960;5.332;2022-07-06T14:22:17;5.97;;;1.52;;
33706;SDS011;20583;50.960;5.332;2022-07-06T14:24:43;9.20;;;1.98;;
33706;SDS011;20583;50.960;5.332;2022-07-06T14:27:09;3.40;;;1.35;;
33706;SDS011;20583;50.960;5.332;2022-07-06T14:29:35;6.28;;;1.27;;
33706;SDS011;20583;50.960;5.332;2022-07-06T14:32:00;6.53;;;1.60;;
33706;SDS011;20583;50.960;5.332;2022-07-06T14:34:26;5.55;;;1.40;;
33706;SDS011;20583;50.960;5.332;2022-07-06T14:36:52;10.52;;;1.50;;
33706;SDS011;20583;50.960;5.332;2022-07-06T14:39:17;4.60;;;1.20;;
33706;SDS011;20583;50.960;5.332;2022-07-06T14:41:43;5.47;;;1.40;;
33706;SDS011;20583;50.960;5.332;2022-07-06T14:44:09;5.70;;;1.38;;
33706;SDS011;20583;50.960;5.332;2022-07-06T14:46:34;8.10;;;1.45;;
33706;SDS011;20583;50.960;5.332;2022-07-06T14:49:01;5.95;;;1.70;;
33706;SDS011;20583;50.960;5.332;2022-07-06T14:51:27;4.45;;;1.60;;